Temp: 8.3°C   Baro: 1006.3mb
  Wind: 0.0mph   Dir: N (358°)
  Rain: 0.0mm (0.0mm/hr)
  Solar: 19W/m2  Hum: 85%
 
Bath Spa Weather Station Historical Data
 
Daily Summary for June 04, 2020 Units:  Metric    English   Both
Daily Weekly Monthly Yearly Custom
  Current: High: Low: Average:
Temperature: 8.3 °C 10.6 °C 8.3 °C 9.8 °C
Dew Point: 5.9 °C 8.7 °C 5.9 °C 7.3 °C
Humidity: 85% 88% 82% 84%
Wind Speed: 4km/h 10.9km/h 1.8km/h 5.6km/h
Wind Gust: 9.7km/h 27.4km/h - -
WindNNW - - SSE
Pressure: 1006.3 hPa 1008.4 hPa 1006.3 hPa -
Precipitation: 0 mm      
Historical Graphs
 
 
Tabular Data for June 04, 2020
Time Temperature Dew Point Pressure Wind Wind Speed Wind Gust Humidity Rainfall Rate (Hourly) solar
00:04 10.6 °C 8.7 °C 1008.4 hPa NE 9 km/h 17.7 km/h 88% 0 mm 0 W/m2
00:09 10.6 °C 8.4 °C 1008.4 hPa NNE 4.7 km/h 19.3 km/h 87% 0 mm 0 W/m2
00:14 10.6 °C 8.5 °C 1008.4 hPa NNE 5.3 km/h 16.1 km/h 87% 0 mm 0 W/m2
00:19 10.6 °C 8.5 °C 1008.4 hPa NNE 7.2 km/h 12.9 km/h 87% 0 mm 0 W/m2
00:24 10.6 °C 8.5 °C 1008.4 hPa NE 4 km/h 14.5 km/h 87% 0 mm 0 W/m2
00:29 10.6 °C 8.4 °C 1008.4 hPa NNE 5.3 km/h 14.5 km/h 87% 0 mm 0 W/m2
00:34 10.4 °C 8.3 °C 1008.4 hPa NNE 7.6 km/h 19.3 km/h 86.2% 0 mm 0 W/m2
00:39 10.4 °C 8.2 °C 1008.4 hPa NNE 7.1 km/h 16.1 km/h 86% 0 mm 0 W/m2
00:44 10.4 °C 8.2 °C 1008.4 hPa North 9.7 km/h 19.3 km/h 86% 0 mm 0 W/m2
00:49 10.4 °C 8.1 °C 1008.4 hPa NNE 6.4 km/h 17.7 km/h 85.6% 0 mm 0 W/m2
00:54 10.4 °C 8 °C 1008.4 hPa North 6.9 km/h 16.1 km/h 85% 0 mm 0 W/m2
00:59 10.3 °C 7.9 °C 1008.4 hPa NNE 10.9 km/h 19.3 km/h 85% 0 mm 0 W/m2
01:04 10.3 °C 7.8 °C 1008.4 hPa NNE 9.2 km/h 20.9 km/h 84.2% 0 mm 0 W/m2
01:09 10.3 °C 7.7 °C 1008.4 hPa NNE 9.7 km/h 27.4 km/h 84% 0 mm 0 W/m2
01:13 10.3 °C 7.6 °C 1008.4 hPa NNE 9.7 km/h 16.1 km/h 83.3% 0 mm 0 W/m2
01:19 10.3 °C 7.5 °C 1008 hPa NNE 5.6 km/h 20.9 km/h 83% 0 mm 0 W/m2
01:24 10.3 °C 7.5 °C 1008.4 hPa NNE 9.7 km/h 14.5 km/h 83% 0 mm 0 W/m2
01:29 10.3 °C 7.5 °C 1008 hPa NE 4.7 km/h 19.3 km/h 83% 0 mm 0 W/m2
01:34 10.3 °C 7.4 °C 1008 hPa NNE 7.2 km/h 14.5 km/h 82.6% 0 mm 0 W/m2
01:39 10.3 °C 7.4 °C 1008 hPa NNE 1.8 km/h 14.5 km/h 82% 0 mm 0 W/m2
01:44 10.3 °C 7.4 °C 1008 hPa NNE 5.8 km/h 12.9 km/h 82% 0 mm 0 W/m2
01:49 10.2 °C 7.3 °C 1008 hPa NNW 6.4 km/h 14.5 km/h 82% 0 mm 0 W/m2
01:54 10.3 °C 7.3 °C 1007.7 hPa North 7.6 km/h 16.1 km/h 82% 0 mm 0 W/m2
01:59 10.2 °C 7.3 °C 1007.7 hPa NNE 7.2 km/h 16.1 km/h 82% 0 mm 0 W/m2
02:04 10.3 °C 7.4 °C 1007.7 hPa NNE 8 km/h 14.5 km/h 82% 0 mm 0 W/m2
02:09 10.3 °C 7.3 °C 1007.7 hPa NNE 7.2 km/h 12.9 km/h 82% 0 mm 0 W/m2
02:14 10.2 °C 7.3 °C 1007.7 hPa NNW 5 km/h 12.9 km/h 82% 0 mm 0 W/m2
02:19 10.2 °C 7.3 °C 1007.7 hPa North 5.1 km/h 12.9 km/h 82% 0 mm 0 W/m2
02:24 10.2 °C 7.3 °C 1007.7 hPa North 5.8 km/h 14.5 km/h 82.4% 0 mm 0 W/m2
02:29 10.2 °C 7.4 °C 1007.7 hPa NNE 4.7 km/h 9.7 km/h 83% 0 mm 0 W/m2
02:34 10.2 °C 7.4 °C 1007.3 hPa NNE 5.8 km/h 14.5 km/h 83% 0 mm 0 W/m2
02:39 10.2 °C 7.4 °C 1007.3 hPa NNE 6 km/h 14.5 km/h 83% 0 mm 0 W/m2
02:44 10.1 °C 7.5 °C 1007.3 hPa NNE 4.7 km/h 12.9 km/h 84% 0 mm 0 W/m2
02:49 10.1 °C 7.5 °C 1007 hPa North 5.1 km/h 12.9 km/h 84% 0 mm 0 W/m2
02:54 10 °C 7.4 °C 1007.3 hPa NNW 4.7 km/h 8 km/h 84% 0 mm 0 W/m2
02:59 9.9 °C 7.3 °C 1007.3 hPa NNW 3.5 km/h 8 km/h 84% 0 mm 0 W/m2
03:04 9.9 °C 7.3 °C 1007.3 hPa North 2.4 km/h 8 km/h 84% 0 mm 0 W/m2
03:09 9.8 °C 7.2 °C 1007 hPa NNW 2.4 km/h 8 km/h 84% 0 mm 0 W/m2
03:14 9.8 °C 7.2 °C 1007 hPa NNW 4 km/h 8 km/h 84.4% 0 mm 0 W/m2
03:19 9.7 °C 7.2 °C 1007 hPa NNE 3.9 km/h 9.7 km/h 84.8% 0 mm 0 W/m2
03:24 9.7 °C 7.2 °C 1007 hPa NNE 3.4 km/h 9.7 km/h 85% 0 mm 0 W/m2
03:29 9.6 °C 7.2 °C 1006.7 hPa NNE 3.7 km/h 14.5 km/h 85% 0 mm 0 W/m2
03:34 9.4 °C 7.1 °C 1006.7 hPa NNE 4.2 km/h 6.4 km/h 85% 0 mm 0 W/m2
03:39 9.4 °C 7 °C 1006.7 hPa North 2.4 km/h 6.4 km/h 85% 0 mm 0 W/m2
03:44 9.3 °C 6.9 °C 1006.7 hPa NW 3.5 km/h 8 km/h 85% 0 mm 0 W/m2
03:49 9.3 °C 6.9 °C 1006.7 hPa NNW 4.8 km/h 9.7 km/h 85% 0 mm 0 W/m2
03:54 9.3 °C 6.9 °C 1006.7 hPa NW 5.1 km/h 11.3 km/h 85% 0 mm 0 W/m2
03:59 9.3 °C 6.9 °C 1006.7 hPa North 5.3 km/h 9.7 km/h 85% 0 mm 0 W/m2
04:04 9.4 °C 7 °C 1006.7 hPa NNW 3.2 km/h 9.7 km/h 85% 0 mm 0 W/m2
04:09 9.4 °C 7 °C 1006.7 hPa NNW 4 km/h 9.7 km/h 85% 0 mm 0 W/m2
04:14 9.3 °C 6.9 °C 1006.7 hPa NNW 6 km/h 12.9 km/h 85% 0 mm 0 W/m2
04:19 9.2 °C 6.8 °C 1006.7 hPa North 6 km/h 14.5 km/h 85% 0 mm 0 W/m2
04:24 9.2 °C 6.8 °C 1006.7 hPa North 4.8 km/h 14.5 km/h 85% 0 mm 0 W/m2
04:29 9.2 °C 6.8 °C 1006.7 hPa North 6.4 km/h 12.9 km/h 85% 0 mm 0 W/m2
04:34 9.1 °C 6.7 °C 1006.7 hPa NNW 4 km/h 14.5 km/h 85% 0 mm 0 W/m2
04:39 9 °C 6.6 °C 1006.7 hPa North 4.7 km/h 11.3 km/h 85% 0 mm 0 W/m2
04:44 8.9 °C 6.5 °C 1006.7 hPa NNW 5.3 km/h 14.5 km/h 85% 0 mm 0 W/m2
04:49 8.7 °C 6.3 °C 1006.3 hPa NNW 6.4 km/h 12.9 km/h 85% 0 mm 0 W/m2
04:54 8.7 °C 6.3 °C 1006.3 hPa North 3.9 km/h 9.7 km/h 85% 0 mm 0 W/m2
04:59 8.6 °C 6.2 °C 1006.3 hPa NNE 5.3 km/h 11.3 km/h 85% 0 mm 0 W/m2
05:04 8.5 °C 6.1 °C 1006.3 hPa North 7.1 km/h 16.1 km/h 85% 0 mm 5 W/m2
05:09 8.4 °C 6 °C 1006.3 hPa North 6.8 km/h 16.1 km/h 85% 0 mm 7 W/m2
05:14 8.4 °C 6 °C 1006.3 hPa North 6.6 km/h 11.3 km/h 85% 0 mm 11 W/m2
05:19 8.3 °C 5.9 °C 1006.3 hPa NNW 6 km/h 11.3 km/h 85% 0 mm 14 W/m2
05:24 8.3 °C 5.9 °C 1006.3 hPa NNW 4 km/h 9.7 km/h 85% 0 mm 16 W/m2
Bath Spa Weather
Compliments of Weather Underground - 2 mb